Time;durP1;ratioP1;P1;durP2;ratioP2;P2;SDS_P1;SDS_P2;PMS_P1;PMS_P2;Temp;Humidity;BMP_temperature;BMP_pressure;BME280_temperature;BME280_humidity;BME280_pressure;Samples;Min_cycle;Max_cycle;Signal;HPM_P1;HPM_P2
2023/01/24 00:00:45;;;;;;;0.10;0.10;;;;;;;;;;6185657;23;20393;-91
2023/01/24 00:03:12;;;;;;;0.10;0.10;;;;;;;;;;6185938;23;20084;-90
2023/01/24 00:05:42;;;;;;;0.10;0.10;;;3.50;99.90;;;;;;6186770;23;20004;-90
2023/01/24 00:08:08;;;;;;;0.10;0.10;;;;;;;;;;6187539;23;20004;-91
2023/01/24 00:10:36;;;;;;;0.10;0.10;;;3.40;99.90;;;;;;6195090;23;20028;-90
2023/01/24 00:13:01;;;;;;;0.00;0.00;;;3.40;99.90;;;;;;6155325;23;20009;-88
2023/01/24 00:15:27;;;;;;;0.10;0.10;;;3.50;99.90;;;;;;6155787;23;20457;-88
2023/01/24 00:17:53;;;;;;;0.10;0.10;;;3.30;99.90;;;;;;6154057;23;20005;-88
2023/01/24 00:20:18;;;;;;;0.10;0.10;;;3.50;99.90;;;;;;6155480;23;20015;-88
2023/01/24 00:22:44;;;;;;;0.10;0.10;;;;;;;;;;6156271;23;20508;-88
2023/01/24 00:25:10;;;;;;;0.10;0.10;;;3.60;99.90;;;;;;6155037;23;20008;-88
2023/01/24 00:27:35;;;;;;;0.10;0.10;;;3.50;99.90;;;;;;6154514;23;20284;-89
2023/01/24 00:30:02;;;;;;;0.10;0.10;;;3.50;99.90;;;;;;6155543;23;20088;-90
2023/01/24 00:32:28;;;;;;;0.10;0.10;;;;;;;;;;6156139;23;20039;-89
2023/01/24 00:34:54;;;;;;;0.10;0.10;;;3.50;99.90;;;;;;6156519;23;20509;-88
2023/01/24 00:37:20;;;;;;;0.10;0.10;;;;;;;;;;6155487;23;19997;-89
2023/01/24 00:39:45;;;;;;;0.10;0.10;;;3.50;99.90;;;;;;6157183;23;20036;-88
2023/01/24 00:42:11;;;;;;;0.10;0.10;;;;;;;;;;6156040;23;20096;-88
2023/01/24 00:44:36;;;;;;;0.10;0.10;;;3.50;99.90;;;;;;6156517;23;20047;-88
2023/01/24 00:47:02;;;;;;;0.10;0.10;;;3.50;99.90;;;;;;6155645;23;20396;-88
2023/01/24 00:49:28;;;;;;;0.10;0.10;;;;;;;;;;6158869;23;20087;-89
2023/01/24 00:51:53;;;;;;;0.10;0.10;;;3.60;99.90;;;;;;6157165;23;20001;-88
2023/01/24 00:54:19;;;;;;;0.10;0.10;;;3.60;99.90;;;;;;6184839;23;20004;-89
2023/01/24 00:56:44;;;;;;;0.00;0.00;;;3.50;99.90;;;;;;6161763;23;20008;-89
2023/01/24 00:59:10;;;;;;;0.10;0.10;;;;;;;;;;6157942;23;20002;-90
2023/01/24 01:01:36;;;;;;;0.10;0.10;;;3.50;99.90;;;;;;6156453;23;20434;-90
2023/01/24 01:04:02;;;;;;;0.10;0.10;;;;;;;;;;6156137;23;20008;-89
2023/01/24 01:06:28;;;;;;;0.10;0.10;;;;;;;;;;6157421;23;20240;-88
2023/01/24 01:08:53;;;;;;;0.10;0.10;;;3.60;99.90;;;;;;6157773;23;20008;-88
2023/01/24 01:11:19;;;;;;;0.10;0.10;;;3.60;99.90;;;;;;6157581;23;20086;-89
2023/01/24 01:13:48;;;;;;;0.10;0.10;;;;;;;;;;6156542;23;20003;-88
2023/01/24 01:16:17;;;;;;;0.10;0.10;;;3.40;99.90;;;;;;6155950;23;20005;-88
2023/01/24 01:18:43;;;;;;;0.10;0.10;;;;;;;;;;6158486;23;20008;-88
2023/01/24 01:21:12;;;;;;;0.10;0.10;;;3.50;99.90;;;;;;6157894;23;20009;-88
2023/01/24 01:23:37;;;;;;;0.10;0.10;;;3.40;99.90;;;;;;6156294;23;20127;-88
2023/01/24 01:26:05;;;;;;;0.10;0.10;;;3.50;99.90;;;;;;6156514;23;20028;-90
2023/01/24 01:28:31;;;;;;;0.00;0.00;;;3.30;99.90;;;;;;6156912;23;20009;-88
2023/01/24 01:30:58;;;;;;;0.10;0.10;;;;;;;;;;6155554;23;20060;-88
2023/01/24 01:33:24;;;;;;;0.10;0.10;;;3.40;99.90;;;;;;6156936;23;20024;-90
2023/01/24 01:35:50;;;;;;;0.10;0.10;;;;;;;;;;6157454;23;20442;-88
2023/01/24 01:51:48;;;;;;;0.10;0.10;;;3.40;99.90;;;;;;6179163;23;20024;-90
2023/01/24 01:54:20;;;;;;;0.10;0.10;;;3.00;99.90;;;;;;6157956;23;20001;-88
2023/01/24 01:56:55;;;;;;;0.13;0.13;;;3.40;99.90;;;;;;6156731;23;20008;-88
2023/01/24 01:59:34;;;;;;;0.00;0.00;;;3.40;99.90;;;;;;6156481;23;20462;-88
2023/01/24 02:02:02;;;;;;;0.10;0.10;;;3.40;99.90;;;;;;6155932;23;20088;-92
2023/01/24 02:04:32;;;;;;;0.10;0.10;;;3.50;99.90;;;;;;6156743;23;20426;-90
2023/01/24 02:07:23;;;;;;;0.10;0.10;;;3.40;99.90;;;;;;6156698;23;20009;-88
2023/01/24 02:09:52;;;;;;;0.10;0.10;;;3.40;99.90;;;;;;6156183;23;20008;-91
2023/01/24 02:12:22;;;;;;;0.10;0.10;;;3.40;99.90;;;;;;6157093;23;20005;-90
2023/01/24 02:17:37;;;;;;;0.10;0.10;;;3.50;99.90;;;;;;6183959;23;20039;-88
2023/01/24 02:20:41;;;;;;;0.10;0.10;;;3.60;99.90;;;;;;6155650;23;20410;-88
2023/01/24 02:23:30;;;;;;;0.10;0.10;;;3.60;99.90;;;;;;6155435;23;20037;-90
2023/01/24 02:26:12;;;;;;;0.10;0.10;;;3.60;99.90;;;;;;6156732;23;20012;-89
2023/01/24 02:28:40;;;;;;;0.10;0.10;;;3.70;99.90;;;;;;6152651;23;20422;-90
2023/01/24 02:31:06;;;;;;;0.10;0.10;;;3.50;99.90;;;;;;6154434;23;20009;-90
2023/01/24 02:33:33;;;;;;;0.10;0.10;;;3.60;99.90;;;;;;6156452;23;20036;-90
2023/01/24 02:36:30;;;;;;;0.10;0.10;;;3.50;99.90;;;;;;6156413;23;20051;-89
2023/01/24 02:39:10;;;;;;;0.10;0.10;;;3.50;99.90;;;;;;6156734;23;20012;-89
2023/01/24 02:41:38;;;;;;;;;;;3.40;99.90;;;;;;6158189;23;20001;-89
2023/01/24 02:44:09;;;;;;;0.10;0.10;;;3.50;99.90;;;;;;6156346;23;19901;-89
2023/01/24 02:46:38;;;;;;;0.10;0.10;;;3.40;99.90;;;;;;6155304;23;20437;-88
2023/01/24 02:49:08;;;;;;;0.10;0.10;;;3.30;99.90;;;;;;6156843;23;20088;-88
2023/01/24 02:54:17;;;;;;;0.10;0.10;;;3.40;99.90;;;;;;6183376;23;20008;-90
2023/01/24 02:59:27;;;;;;;0.08;0.08;;;;;;;;;;6182923;23;20012;-89
2023/01/24 03:01:53;;;;;;;0.10;0.10;;;3.40;99.90;;;;;;6154664;23;20005;-88
2023/01/24 03:04:18;;;;;;;0.10;0.10;;;3.60;99.90;;;;;;6153017;23;20011;-90
2023/01/24 03:06:44;;;;;;;0.20;0.20;;;3.40;99.90;;;;;;6157049;23;20044;-90
2023/01/24 03:09:19;;;;;;;0.10;0.10;;;;;;;;;;6156846;23;20052;-89
2023/01/24 03:11:49;;;;;;;0.10;0.10;;;3.60;99.90;;;;;;6156171;23;20353;-88
2023/01/24 03:36:19;;;;;;;0.00;0.00;;;;;;;;;;6183116;23;20092;-89
2023/01/24 03:41:30;;;;;;;0.10;0.10;;;;;;;;;;6181926;23;20016;-90
2023/01/24 03:43:55;;;;;;;0.10;0.10;;;3.40;99.90;;;;;;6156050;23;20001;-88
2023/01/24 03:46:21;;;;;;;0.00;0.00;;;3.40;99.90;;;;;;6155816;23;20350;-88
2023/01/24 03:48:46;;;;;;;0.10;0.10;;;3.40;99.90;;;;;;6156735;23;20012;-89
2023/01/24 03:53:57;;;;;;;0.10;0.10;;;;;;;;;;6181322;23;20477;-88
2023/01/24 03:56:23;;;;;;;0.10;0.10;;;;;;;;;;6156880;23;19997;-89
2023/01/24 03:58:48;;;;;;;0.10;0.10;;;3.40;99.90;;;;;;6161133;23;20012;-89
2023/01/24 04:01:14;;;;;;;0.10;0.10;;;;;;;;;;6155372;23;20315;-88
2023/01/24 04:03:40;;;;;;;0.10;0.10;;;;;;;;;;6155494;23;20001;-90
2023/01/24 04:06:06;;;;;;;0.10;0.10;;;3.50;99.90;;;;;;6156488;23;20005;-89
2023/01/24 04:08:32;;;;;;;0.10;0.10;;;;;;;;;;6151805;23;20009;-88
2023/01/24 04:10:57;;;;;;;0.10;0.10;;;3.40;99.90;;;;;;6181058;23;20094;-89
2023/01/24 04:13:23;;;;;;;0.10;0.10;;;3.30;99.90;;;;;;6155817;23;20001;-90
2023/01/24 04:15:49;;;;;;;0.00;0.00;;;3.40;99.90;;;;;;6155939;23;20012;-88
2023/01/24 04:18:14;;;;;;;0.00;0.00;;;3.30;99.90;;;;;;6155805;23;20373;-88
2023/01/24 04:20:40;;;;;;;0.10;0.10;;;3.40;99.90;;;;;;6155501;23;20041;-88
2023/01/24 04:23:07;;;;;;;0.10;0.10;;;3.40;99.90;;;;;;6154768;23;20052;-89
2023/01/24 04:25:33;;;;;;;0.10;0.10;;;3.30;99.90;;;;;;6155409;23;20005;-92
2023/01/24 04:28:00;;;;;;;0.10;0.10;;;3.40;99.90;;;;;;6154137;23;20034;-88
2023/01/24 04:30:25;;;;;;;0.10;0.10;;;3.40;99.90;;;;;;6152758;23;20013;-88
2023/01/24 04:32:51;;;;;;;0.10;0.10;;;3.30;99.90;;;;;;6155864;23;20076;-88
2023/01/24 04:35:19;;;;;;;0.10;0.10;;;3.50;99.90;;;;;;6156648;23;20001;-88
2023/01/24 04:37:45;;;;;;;0.10;0.10;;;3.50;99.90;;;;;;6155761;23;20005;-88
2023/01/24 04:40:11;;;;;;;0.10;0.10;;;3.50;99.90;;;;;;6154154;23;20036;-90
2023/01/24 04:42:40;;;;;;;0.10;0.10;;;3.50;99.90;;;;;;6156745;23;20032;-88
2023/01/24 04:45:06;;;;;;;0.13;0.13;;;3.50;99.90;;;;;;6150528;23;20012;-88
2023/01/24 04:47:32;;;;;;;0.10;0.10;;;;;;;;;;6155628;23;20224;-88
2023/01/24 04:49:58;;;;;;;0.10;0.10;;;;;;;;;;6154986;23;20015;-87
2023/01/24 04:52:24;;;;;;;0.10;0.10;;;3.50;99.90;;;;;;6155760;23;20032;-87
2023/01/24 04:54:51;;;;;;;0.10;0.10;;;;;;;;;;6154883;23;20001;-88
2023/01/24 04:57:17;;;;;;;0.10;0.10;;;3.50;99.90;;;;;;6155702;23;20036;-88
2023/01/24 04:59:43;;;;;;;0.10;0.10;;;;;;;;;;6156543;23;20005;-87
2023/01/24 05:02:09;;;;;;;0.10;0.10;;;3.30;99.90;;;;;;6153936;23;20020;-88
2023/01/24 05:04:34;;;;;;;0.10;0.10;;;;;;;;;;6154319;23;20350;-88
2023/01/24 05:07:01;;;;;;;0.10;0.10;;;;;;;;;;6156354;23;20017;-89
2023/01/24 05:09:27;;;;;;;0.10;0.10;;;;;;;;;;6154983;23;20405;-89
2023/01/24 05:11:52;;;;;;;0.03;0.03;;;3.40;99.90;;;;;;6155655;23;20013;-90
2023/01/24 05:14:18;;;;;;;0.10;0.10;;;3.40;99.90;;;;;;6155185;23;20083;-88
2023/01/24 05:16:43;;;;;;;0.10;0.10;;;3.60;99.90;;;;;;6155378;23;20005;-88
2023/01/24 05:19:09;;;;;;;0.03;0.03;;;;;;;;;;6154091;23;20033;-89
2023/01/24 05:21:35;;;;;;;0.10;0.10;;;;;;;;;;6154441;23;20442;-88
2023/01/24 05:24:01;;;;;;;0.10;0.10;;;3.40;99.90;;;;;;6155550;23;20001;-88
2023/01/24 05:26:27;;;;;;;0.03;0.03;;;3.40;99.90;;;;;;6155623;23;20091;-87
2023/01/24 05:28:53;;;;;;;0.10;0.10;;;3.50;99.90;;;;;;6156139;23;20035;-90
2023/01/24 05:31:19;;;;;;;0.10;0.10;;;3.50;99.90;;;;;;6153311;23;20494;-88
2023/01/24 05:33:46;;;;;;;0.10;0.10;;;;;;;;;;6155571;23;20097;-88
2023/01/24 05:36:14;;;;;;;0.10;0.10;;;3.50;99.90;;;;;;6157575;23;20481;-87
2023/01/24 05:38:41;;;;;;;0.10;0.10;;;3.40;99.90;;;;;;6157516;23;20008;-88
2023/01/24 05:41:09;;;;;;;0.10;0.10;;;3.20;99.90;;;;;;6156686;23;20001;-88
2023/01/24 05:43:35;;;;;;;0.10;0.10;;;3.20;99.90;;;;;;6158510;23;20009;-88
2023/01/24 05:46:04;;;;;;;0.10;0.10;;;3.30;99.90;;;;;;6184143;23;19997;-89
2023/01/24 05:48:30;;;;;;;0.10;0.10;;;3.30;99.90;;;;;;6158255;23;20056;-89
2023/01/24 05:51:01;;;;;;;0.10;0.10;;;3.30;99.90;;;;;;6157465;23;20009;-88
2023/01/24 05:53:28;;;;;;;0.10;0.10;;;3.30;99.90;;;;;;6156840;23;20005;-88
2023/01/24 05:55:58;;;;;;;0.10;0.10;;;3.40;99.90;;;;;;6158670;23;20008;-88
2023/01/24 05:58:25;;;;;;;0.00;0.00;;;3.50;99.90;;;;;;6157882;23;20001;-90
2023/01/24 06:00:51;;;;;;;0.10;0.10;;;3.40;99.90;;;;;;6158076;23;20013;-88
2023/01/24 06:03:17;;;;;;;0.10;0.10;;;;;;;;;;6158270;23;20027;-88
2023/01/24 06:05:50;;;;;;;0.10;0.10;;;3.40;99.90;;;;;;6156706;23;20043;-88
2023/01/24 06:08:16;;;;;;;0.10;0.10;;;3.30;99.90;;;;;;6158298;23;20005;-88
2023/01/24 06:13:12;;;;;;;0.10;0.10;;;;;;;;;;6184370;23;20454;-90
2023/01/24 06:15:38;;;;;;;0.10;0.10;;;3.30;99.90;;;;;;6157747;23;20004;-90
2023/01/24 06:18:05;;;;;;;0.05;0.05;;;3.30;99.90;;;;;;6158777;23;20020;-91
2023/01/24 06:20:31;;;;;;;0.00;0.00;;;;;;;;;;6157723;23;20009;-90
2023/01/24 06:23:03;;;;;;;0.10;0.10;;;3.10;99.90;;;;;;6157477;23;20032;-90
2023/01/24 06:25:29;;;;;;;0.10;0.10;;;;;;;;;;6158882;23;20098;-90
2023/01/24 06:27:55;;;;;;;0.10;0.10;;;;;;;;;;6157435;23;20358;-89
2023/01/24 06:30:21;;;;;;;0.10;0.10;;;;;;;;;;6156363;23;20044;-91
2023/01/24 06:33:18;;;;;;;0.10;0.10;;;3.30;99.90;;;;;;6157736;23;20028;-89
2023/01/24 06:35:43;;;;;;;0.10;0.10;;;;;;;;;;6157497;23;20059;-91
2023/01/24 06:38:19;;;;;;;0.10;0.10;;;3.50;99.90;;;;;;6158766;23;20037;-89
2023/01/24 06:40:45;;;;;;;0.10;0.10;;;;;;;;;;6158583;23;20013;-90
2023/01/24 06:43:11;;;;;;;0.10;0.10;;;;;;;;;;6157337;23;20013;-90
2023/01/24 06:45:37;;;;;;;0.10;0.10;;;;;;;;;;6157027;23;20005;-89
2023/01/24 06:48:02;;;;;;;0.10;0.10;;;3.30;99.90;;;;;;6186030;23;20039;-89
2023/01/24 06:50:31;;;;;;;0.10;0.10;;;;;;;;;;6158902;23;20001;-89
2023/01/24 06:52:57;;;;;;;0.10;0.10;;;;;;;;;;6158265;23;20005;-90
2023/01/24 06:55:23;;;;;;;0.15;0.15;;;;;;;;;;6159064;23;20011;-89
2023/01/24 06:57:56;;;;;;;0.10;0.10;;;3.10;99.90;;;;;;6158973;23;20005;-89
2023/01/24 07:00:22;;;;;;;0.10;0.10;;;;;;;;;;6154872;23;19997;-88
2023/01/24 07:02:48;;;;;;;0.10;0.10;;;;;;;;;;6157005;23;20881;-90
2023/01/24 07:05:14;;;;;;;0.10;0.10;;;;;;;;;;6158471;23;20434;-90
2023/01/24 07:07:40;;;;;;;0.10;0.10;;;;;;;;;;6158642;23;20005;-90
2023/01/24 07:10:06;;;;;;;0.05;0.05;;;3.00;99.90;;;;;;6158291;23;20009;-91
2023/01/24 07:12:32;;;;;;;0.10;0.10;;;;;;;;;;6153415;23;20021;-91
2023/01/24 07:14:57;;;;;;;0.10;0.10;;;3.00;99.90;;;;;;6151201;23;20010;-89
2023/01/24 07:17:23;;;;;;;0.10;0.10;;;3.10;99.90;;;;;;6155374;23;20012;-88
2023/01/24 07:19:49;;;;;;;0.10;0.10;;;2.90;99.90;;;;;;6155570;23;20394;-89
2023/01/24 07:22:15;;;;;;;0.00;0.00;;;2.90;99.90;;;;;;6154360;23;20013;-89
2023/01/24 07:24:42;;;;;;;0.10;0.10;;;3.00;99.90;;;;;;6150483;23;20467;-90
2023/01/24 07:27:08;;;;;;;0.10;0.10;;;;;;;;;;6153853;23;20442;-88
2023/01/24 07:29:34;;;;;;;0.10;0.10;;;3.10;99.90;;;;;;6152600;23;20001;-89
2023/01/24 07:31:59;;;;;;;0.10;0.10;;;3.10;99.90;;;;;;6154191;23;20006;-89
2023/01/24 07:34:25;;;;;;;0.10;0.10;;;2.90;99.90;;;;;;6153832;23;20012;-90
2023/01/24 07:36:50;;;;;;;0.03;0.03;;;3.20;99.90;;;;;;6154102;23;20012;-90
2023/01/24 07:39:16;;;;;;;0.10;0.10;;;3.10;99.90;;;;;;6154356;23;20390;-89
2023/01/24 07:41:43;;;;;;;0.00;0.00;;;;;;;;;;6151999;23;20060;-90
2023/01/24 07:44:09;;;;;;;0.08;0.08;;;;;;;;;;6151522;23;20016;-90
2023/01/24 07:46:36;;;;;;;0.10;0.10;;;;;;;;;;6151732;23;20096;-89
2023/01/24 07:49:02;;;;;;;0.00;0.00;;;;;;;;;;6154235;23;20013;-92
2023/01/24 07:51:28;;;;;;;0.10;0.10;;;3.10;99.90;;;;;;6152877;23;20001;-90
2023/01/24 07:53:53;;;;;;;0.10;0.10;;;2.90;99.90;;;;;;6153017;23;20059;-89
2023/01/24 07:56:19;;;;;;;0.10;0.10;;;;;;;;;;6154009;23;20006;-88
2023/01/24 07:58:45;;;;;;;0.10;0.10;;;;;;;;;;6153189;23;20040;-89
2023/01/24 08:01:22;;;;;;;0.10;0.10;;;3.20;99.90;;;;;;6151854;23;20009;-89
2023/01/24 08:03:49;;;;;;;0.10;0.10;;;;;;;;;;6153269;23;20002;-88
2023/01/24 08:06:15;;;;;;;0.10;0.10;;;;;;;;;;6153754;23;20012;-89
2023/01/24 08:08:40;;;;;;;0.10;0.10;;;;;;;;;;6153265;23;20002;-90
2023/01/24 08:11:07;;;;;;;0.03;0.03;;;;;;;;;;6157360;23;20006;-88
2023/01/24 08:13:33;;;;;;;0.10;0.10;;;;;;;;;;6158159;23;20100;-93
2023/01/24 08:16:00;;;;;;;0.10;0.10;;;3.20;99.90;;;;;;6158689;23;20001;-90
2023/01/24 08:18:26;;;;;;;0.10;0.10;;;;;;;;;;6157151;23;20001;-90
2023/01/24 08:20:55;;;;;;;0.10;0.10;;;3.30;99.90;;;;;;6151379;23;20012;-89
2023/01/24 08:23:21;;;;;;;0.10;0.10;;;;;;;;;;6155527;23;20489;-90
2023/01/24 08:25:47;;;;;;;0.10;0.10;;;;;;;;;;6154851;23;20020;-90
2023/01/24 08:28:13;;;;;;;0.10;0.10;;;;;;;;;;6155709;23;20029;-91
2023/01/24 08:30:39;;;;;;;0.00;0.00;;;;;;;;;;6155575;23;20041;-89
2023/01/24 08:33:05;;;;;;;0.10;0.10;;;3.20;99.90;;;;;;6153588;23;20064;-92
2023/01/24 08:35:31;;;;;;;0.10;0.10;;;;;;;;;;6155635;23;20013;-91
2023/01/24 08:37:58;;;;;;;0.10;0.10;;;;;;;;;;6155998;23;20001;-90
2023/01/24 08:40:24;;;;;;;0.10;0.10;;;;;;;;;;6156428;23;20607;-89
2023/01/24 08:42:50;;;;;;;0.10;0.10;;;;;;;;;;6155916;23;20005;-90
2023/01/24 08:45:16;;;;;;;0.10;0.10;;;;;;;;;;6153052;23;20356;-89
2023/01/24 08:47:42;;;;;;;0.08;0.08;;;;;;;;;;6156369;23;20084;-90
2023/01/24 08:50:08;;;;;;;0.10;0.10;;;3.30;99.90;;;;;;6153739;23;20063;-90
2023/01/24 08:52:34;;;;;;;0.10;0.10;;;;;;;;;;6155324;23;20001;-91
2023/01/24 08:55:00;;;;;;;0.10;0.10;;;;;;;;;;6153883;23;20016;-92
2023/01/24 08:57:26;;;;;;;0.10;0.10;;;;;;;;;;6155255;23;20005;-90
2023/01/24 08:59:53;;;;;;;0.10;0.10;;;;;;;;;;6155251;23;20430;-89
2023/01/24 09:02:19;;;;;;;0.10;0.10;;;;;;;;;;6155971;23;20064;-91
2023/01/24 09:04:45;;;;;;;0.10;0.10;;;;;;;;;;6156457;23;20111;-89
2023/01/24 09:07:12;;;;;;;0.10;0.10;;;3.50;99.90;;;;;;6156525;23;20088;-89
2023/01/24 09:09:38;;;;;;;0.10;0.10;;;;;;;;;;6157352;23;20009;-90
2023/01/24 09:12:04;;;;;;;0.10;0.10;;;;;;;;;;6158741;23;20390;-90
2023/01/24 09:14:30;;;;;;;0.10;0.10;;;;;;;;;;6158461;23;20001;-89
2023/01/24 09:16:56;;;;;;;0.10;0.10;;;;;;;;;;6157444;23;20456;-91
2023/01/24 09:19:23;;;;;;;0.10;0.10;;;;;;;;;;6159059;23;20001;-89
2023/01/24 09:21:51;;;;;;;0.10;0.10;;;;;;;;;;6159427;23;19997;-89
2023/01/24 09:24:18;;;;;;;0.10;0.10;;;;;;;;;;6159072;23;20001;-89
2023/01/24 09:26:44;;;;;;;0.10;0.10;;;;;;;;;;6159183;23;20008;-92
2023/01/24 09:29:10;;;;;;;0.05;0.05;;;;;;;;;;6158243;23;20401;-91
2023/01/24 09:31:36;;;;;;;0.10;0.10;;;;;;;;;;6157466;23;20357;-91
2023/01/24 09:34:02;;;;;;;0.00;0.00;;;;;;;;;;6158022;23;20430;-90
2023/01/24 09:36:29;;;;;;;0.00;0.00;;;;;;;;;;6154834;23;20479;-92
2023/01/24 09:38:55;;;;;;;0.10;0.10;;;;;;;;;;6158705;23;20199;-90
2023/01/24 09:41:48;;;;;;;0.10;0.10;;;3.70;99.90;;;;;;6159435;23;20013;-90
2023/01/24 09:44:42;;;;;;;0.08;0.08;;;3.90;99.90;;;;;;6156693;23;20448;-89
2023/01/24 09:47:18;;;;;;;0.10;0.10;;;3.90;99.90;;;;;;6160513;23;20001;-93
2023/01/24 09:49:56;;;;;;;0.00;0.00;;;3.80;99.90;;;;;;6156028;23;20005;-92
2023/01/24 09:52:46;;;;;;;0.10;0.10;;;3.90;99.90;;;;;;6156008;23;20092;-90
2023/01/24 09:55:16;;;;;;;0.15;0.15;;;3.90;99.90;;;;;;6157560;23;19997;-90
2023/01/24 09:57:49;;;;;;;0.10;0.10;;;3.60;99.90;;;;;;6158666;23;20427;-90
2023/01/24 10:00:28;;;;;;;0.10;0.10;;;3.80;99.90;;;;;;6158194;23;20016;-89
2023/01/24 10:02:56;;;;;;;0.08;0.08;;;3.90;99.90;;;;;;6159225;23;20001;-89
2023/01/24 10:05:32;;;;;;;0.10;0.10;;;3.90;99.90;;;;;;6160215;23;20120;-90
2023/01/24 10:08:33;;;;;;;0.10;0.10;;;3.80;99.90;;;;;;6157694;23;20049;-94
2023/01/24 10:11:14;;;;;;;0.10;0.10;;;4.00;99.90;;;;;;6159641;23;20009;-89
2023/01/24 10:13:59;;;;;;;0.10;0.10;;;4.00;99.90;;;;;;6157771;23;20379;-91
2023/01/24 10:16:40;;;;;;;0.08;0.08;;;4.00;99.90;;;;;;6160104;23;20012;-90
2023/01/24 10:19:29;;;;;;;0.10;0.10;;;4.00;99.90;;;;;;6160994;23;20055;-90
2023/01/24 10:22:10;;;;;;;0.10;0.10;;;4.00;99.90;;;;;;6161516;23;20288;-90
2023/01/24 10:24:40;;;;;;;0.10;0.10;;;4.10;99.90;;;;;;6160492;23;20008;-91
2023/01/24 10:27:12;;;;;;;;;;;4.60;99.90;;;;;;6161202;23;20005;-90
2023/01/24 10:29:39;;;;;;;0.10;0.10;;;;;;;;;;6160519;23;19900;-92
2023/01/24 10:32:13;;;;;;;0.10;0.10;;;3.80;99.90;;;;;;6156737;23;20503;-90
2023/01/24 10:34:45;;;;;;;0.10;0.10;;;3.30;99.90;;;;;;6159062;23;20008;-90
2023/01/24 10:37:10;;;;;;;0.10;0.10;;;3.70;99.90;;;;;;6159045;23;20012;-89
2023/01/24 10:39:37;;;;;;;0.00;0.00;;;3.90;99.90;;;;;;6155972;23;20009;-94
2023/01/24 10:42:18;;;;;;;0.10;0.10;;;4.00;99.90;;;;;;6164511;23;20092;-91
2023/01/24 10:44:44;;;;;;;0.10;0.10;;;;;;;;;;6171760;23;20031;-90
2023/01/24 10:47:32;;;;;;;0.10;0.10;;;3.80;99.90;;;;;;6164174;23;20028;-91
2023/01/24 10:50:05;;;;;;;0.10;0.10;;;3.90;99.90;;;;;;6158458;23;20013;-91
2023/01/24 10:52:33;;;;;;;0.15;0.15;;;;;;;;;;6157381;23;20039;-91
2023/01/24 10:55:01;;;;;;;0.00;0.00;;;4.10;99.90;;;;;;6157538;23;20100;-90
2023/01/24 10:57:53;;;;;;;0.10;0.10;;;4.10;99.90;;;;;;6158158;23;20002;-92
2023/01/24 11:00:27;;;;;;;0.10;0.10;;;4.00;99.90;;;;;;6156898;23;20385;-92
2023/01/24 11:03:19;;;;;;;0.10;0.10;;;4.10;99.90;;;;;;6157350;23;20005;-91
2023/01/24 11:05:55;;;;;;;0.10;0.10;;;4.20;99.90;;;;;;6157700;23;20088;-91
2023/01/24 11:08:24;;;;;;;0.10;0.10;;;4.20;99.90;;;;;;6155597;23;20051;-91
2023/01/24 11:11:00;;;;;;;0.00;0.00;;;4.10;99.90;;;;;;6157945;23;20015;-91
2023/01/24 11:13:26;;;;;;;0.10;0.10;;;;;;;;;;6156629;23;20009;-91
2023/01/24 11:16:00;;;;;;;0.10;0.10;;;4.20;99.90;;;;;;6156459;23;20044;-91
2023/01/24 11:18:30;;;;;;;0.10;0.10;;;;;;;;;;6157349;23;20092;-91
2023/01/24 11:21:11;;;;;;;0.10;0.10;;;4.10;99.90;;;;;;6157383;23;20005;-91
2023/01/24 11:23:37;;;;;;;0.10;0.10;;;;;;;;;;6157915;23;20024;-91
2023/01/24 11:26:05;;;;;;;0.10;0.10;;;3.90;99.90;;;;;;6157434;23;20011;-91
2023/01/24 11:28:36;;;;;;;0.10;0.10;;;4.00;99.90;;;;;;6157918;23;20062;-91
2023/01/24 11:31:14;;;;;;;0.10;0.10;;;4.10;99.90;;;;;;6156120;23;20060;-92
2023/01/24 11:34:06;;;;;;;0.10;0.10;;;4.10;99.90;;;;;;6156301;23;20001;-91
2023/01/24 11:37:09;;;;;;;0.10;0.10;;;4.10;99.90;;;;;;6157015;23;20337;-91
2023/01/24 11:50:32;;;;;;;0.10;0.10;;;4.10;99.90;;;;;;6185288;23;20563;-90
2023/01/24 12:30:57;;;;;;;0.10;0.10;;;4.40;99.90;;;;;;6178022;23;20017;-91
2023/01/24 12:33:31;;;;;;;0.10;0.10;;;4.30;99.90;;;;;;6153756;23;20013;-90
2023/01/24 12:36:25;;;;;;;0.10;0.10;;;4.40;99.90;;;;;;6153094;23;20001;-92
2023/01/24 12:38:55;;;;;;;0.10;0.10;;;4.40;99.90;;;;;;6154401;23;20012;-90
2023/01/24 12:41:34;;;;;;;0.00;0.00;;;4.40;99.90;;;;;;6156678;23;20005;-91
2023/01/24 12:49:46;;;;;;;0.10;0.10;;;4.30;99.90;;;;;;6182612;22;20036;-90
2023/01/24 12:52:22;;;;;;;0.10;0.10;;;4.20;99.90;;;;;;6156104;23;20012;-89
2023/01/24 12:54:56;;;;;;;0.10;0.10;;;4.30;99.90;;;;;;6160327;23;20001;-88
2023/01/24 12:57:35;;;;;;;0.10;0.10;;;4.30;99.90;;;;;;6158219;23;20001;-89
2023/01/24 13:00:01;;;;;;;0.03;0.03;;;;;;;;;;6157981;23;20009;-88
2023/01/24 13:02:39;;;;;;;0.10;0.10;;;4.30;99.90;;;;;;6157211;23;20009;-88
2023/01/24 13:05:45;;;;;;;0.08;0.08;;;5.30;99.90;;;;;;6157095;23;20016;-88
2023/01/24 13:08:34;;;;;;;0.10;0.10;;;4.50;99.90;;;;;;6158115;23;20005;-90
2023/01/24 13:11:25;;;;;;;0.10;0.10;;;4.40;99.90;;;;;;6159197;23;20028;-88
2023/01/24 13:14:16;;;;;;;0.10;0.10;;;4.50;99.90;;;;;;6158088;23;20009;-89
2023/01/24 13:17:04;;;;;;;0.10;0.10;;;4.50;99.90;;;;;;6116461;23;20004;-88
2023/01/24 13:19:52;;;;;;;0.08;0.08;;;4.10;99.90;;;;;;6159544;23;20016;-89
2023/01/24 13:22:20;;;;;;;0.00;0.00;;;4.40;99.90;;;;;;6160044;23;20088;-90
2023/01/24 13:25:03;;;;;;;0.10;0.10;;;4.40;99.90;;;;;;6159983;23;20005;-89
2023/01/24 13:27:44;;;;;;;0.10;0.10;;;4.30;99.90;;;;;;6159543;23;20059;-89
2023/01/24 13:30:17;;;;;;;0.10;0.10;;;4.40;99.90;;;;;;6158876;23;20089;-89
2023/01/24 13:32:43;;;;;;;0.08;0.08;;;;;;;;;;6158062;23;20029;-91
2023/01/24 13:35:18;;;;;;;0.10;0.10;;;4.40;99.90;;;;;;6158955;23;20004;-88
2023/01/24 13:37:50;;;;;;;0.10;0.10;;;4.10;99.90;;;;;;6159527;23;20442;-87
2023/01/24 13:40:16;;;;;;;0.10;0.10;;;;;;;;;;6160686;23;20031;-89
2023/01/24 13:42:42;;;;;;;0.10;0.10;;;4.10;99.90;;;;;;6160263;23;20346;-89
2023/01/24 13:45:23;;;;;;;0.10;0.10;;;3.70;99.90;;;;;;6159762;23;20005;-89
2023/01/24 13:47:49;;;;;;;0.10;0.10;;;;;;;;;;6159557;23;20005;-89
2023/01/24 13:50:17;;;;;;;0.10;0.10;;;4.10;99.90;;;;;;6159761;23;20021;-88
2023/01/24 13:52:55;;;;;;;0.10;0.10;;;4.20;99.90;;;;;;6159373;23;20583;-88
2023/01/24 13:55:23;;;;;;;0.10;0.10;;;4.20;99.90;;;;;;6157826;23;20005;-88
2023/01/24 13:58:11;;;;;;;0.10;0.10;;;4.30;99.90;;;;;;6159883;23;20028;-87
2023/01/24 14:00:45;;;;;;;0.10;0.10;;;4.10;99.90;;;;;;6158949;23;20009;-87
2023/01/24 14:03:23;;;;;;;0.10;0.10;;;4.10;99.90;;;;;;6159257;23;20095;-88
2023/01/24 14:06:01;;;;;;;0.10;0.10;;;4.20;99.90;;;;;;6159288;23;20426;-88
2023/01/24 14:08:27;;;;;;;0.03;0.03;;;;;;;;;;6157292;23;20058;-88
2023/01/24 14:11:05;;;;;;;0.10;0.10;;;4.10;99.90;;;;;;6158881;23;20501;-90
2023/01/24 14:13:49;;;;;;;0.10;0.10;;;3.80;99.90;;;;;;6158177;23;20001;-87
2023/01/24 14:16:33;;;;;;;0.10;0.10;;;3.70;99.90;;;;;;6158091;23;20088;-87
2023/01/24 14:18:59;;;;;;;0.10;0.10;;;;;;;;;;6153440;23;20011;-88
2023/01/24 14:21:29;;;;;;;0.10;0.10;;;3.60;99.90;;;;;;6156987;23;20005;-89
2023/01/24 14:24:00;;;;;;;0.10;0.10;;;3.60;99.90;;;;;;6155060;23;20059;-88
2023/01/24 14:26:33;;;;;;;0.00;0.00;;;3.60;99.90;;;;;;6156712;23;20009;-87
2023/01/24 14:29:02;;;;;;;0.08;0.08;;;3.50;99.90;;;;;;6154914;23;20467;-88
2023/01/24 14:31:36;;;;;;;0.10;0.10;;;3.80;99.90;;;;;;6155474;23;20012;-88
2023/01/24 14:34:10;;;;;;;0.10;0.10;;;3.90;99.90;;;;;;6155450;23;20005;-88
2023/01/24 14:36:38;;;;;;;0.10;0.10;;;;;;;;;;6156715;23;20036;-88
2023/01/24 14:39:20;;;;;;;0.10;0.10;;;3.90;99.90;;;;;;6156020;23;20005;-89
2023/01/24 14:41:49;;;;;;;0.03;0.03;;;3.90;99.90;;;;;;6158363;23;20648;-89
2023/01/24 14:44:31;;;;;;;0.05;0.05;;;3.60;99.90;;;;;;6157807;23;20005;-88
2023/01/24 14:46:59;;;;;;;0.00;0.00;;;3.80;99.90;;;;;;6156683;23;20013;-90
2023/01/24 14:49:28;;;;;;;0.00;0.00;;;3.80;99.90;;;;;;6157772;23;20020;-89
2023/01/24 14:51:53;;;;;;;0.10;0.10;;;3.90;99.90;;;;;;6157380;23;20012;-90
2023/01/24 14:54:22;;;;;;;0.00;0.00;;;3.80;99.90;;;;;;6156353;23;20084;-89
2023/01/24 14:56:48;;;;;;;0.05;0.05;;;;;;;;;;6157001;23;20032;-88
2023/01/24 14:59:17;;;;;;;0.10;0.10;;;3.90;99.90;;;;;;6158313;23;20012;-89
2023/01/24 15:01:45;;;;;;;0.10;0.10;;;;;;;;;;6148233;23;20457;-89
2023/01/24 15:04:29;;;;;;;0.00;0.00;;;3.90;99.90;;;;;;6157372;23;20009;-89
2023/01/24 15:07:13;;;;;;;0.10;0.10;;;3.80;99.90;;;;;;6159391;23;20057;-88
2023/01/24 15:09:40;;;;;;;0.10;0.10;;;3.80;99.90;;;;;;6158243;23;20005;-90
2023/01/24 15:12:25;;;;;;;0.10;0.10;;;3.80;99.90;;;;;;6156974;23;20005;-89
2023/01/24 15:14:52;;;;;;;0.10;0.10;;;3.80;99.90;;;;;;6156837;23;20089;-88
2023/01/24 15:17:23;;;;;;;0.10;0.10;;;3.70;99.90;;;;;;6157279;23;20434;-89
2023/01/24 15:19:52;;;;;;;0.10;0.10;;;3.70;99.90;;;;;;6155605;23;20027;-88
2023/01/24 15:22:21;;;;;;;0.10;0.10;;;5.00;99.90;;;;;;6156070;23;20001;-89
2023/01/24 15:24:57;;;;;;;0.10;0.10;;;3.60;99.90;;;;;;6155952;23;20033;-90
2023/01/24 15:27:26;;;;;;;0.10;0.10;;;3.40;99.90;;;;;;6156008;23;20390;-89
2023/01/24 15:30:13;;;;;;;0.10;0.10;;;6.20;99.90;;;;;;6155275;23;20084;-89
2023/01/24 15:32:41;;;;;;;0.10;0.10;;;3.50;99.90;;;;;;6152657;23;20059;-89